Time;durP1;ratioP1;P1;durP2;ratioP2;P2;SDS_P1;SDS_P2;PMS_P1;PMS_P2;Temp;Humidity;BMP_temperature;BMP_pressure;BME280_temperature;BME280_humidity;BME280_pressure;Samples;Min_cycle;Max_cycle;Signal;HPM_P1;HPM_P2
2023/08/21 00:00:23;;;;;;;10.27;7.25;;;21.00;92.00;;;;;;6249817;23;20012;-81
2023/08/21 00:02:48;;;;;;;10.30;7.15;;;21.00;91.90;;;;;;6249910;23;20039;-82
2023/08/21 00:05:14;;;;;;;9.77;7.32;;;21.00;91.90;;;;;;6222565;23;20340;-81
2023/08/21 00:07:39;;;;;;;13.48;7.75;;;20.90;91.60;;;;;;6249196;23;20011;-82
2023/08/21 00:10:05;;;;;;;10.05;7.40;;;20.90;91.50;;;;;;6249154;23;20004;-82
2023/08/21 00:12:31;;;;;;;10.32;7.28;;;20.80;91.20;;;;;;6249816;23;19996;-81
2023/08/21 00:14:57;;;;;;;12.30;8.05;;;20.80;90.10;;;;;;6249780;23;20378;-82
2023/08/21 00:17:23;;;;;;;11.00;8.00;;;20.70;89.70;;;;;;6249760;23;20044;-81
2023/08/21 00:19:49;;;;;;;11.45;7.93;;;20.70;89.30;;;;;;6223225;23;20077;-81
2023/08/21 00:22:14;;;;;;;9.52;7.88;;;20.70;88.80;;;;;;6248409;23;20008;-82
2023/08/21 00:24:40;;;;;;;13.25;7.95;;;20.70;88.40;;;;;;6248868;23;20456;-82
2023/08/21 00:27:06;;;;;;;12.57;7.88;;;20.70;88.90;;;;;;6222784;23;20000;-82
2023/08/21 00:29:31;;;;;;;11.52;8.27;;;20.80;89.00;;;;;;6249566;23;20035;-82
2023/08/21 00:31:57;;;;;;;11.23;7.90;;;20.80;88.60;;;;;;6223096;23;20001;-82
2023/08/21 00:34:22;;;;;;;10.38;8.23;;;20.80;88.30;;;;;;6249665;23;20011;-82
2023/08/21 00:36:48;;;;;;;11.23;8.20;;;20.80;88.50;;;;;;6248231;23;20114;-82
2023/08/21 00:39:13;;;;;;;11.65;8.57;;;20.70;88.20;;;;;;6249203;23;20050;-82
2023/08/21 00:41:39;;;;;;;13.40;8.10;;;20.70;88.10;;;;;;6249726;23;20067;-82
2023/08/21 00:44:04;;;;;;;14.32;8.52;;;20.70;87.80;;;;;;6251162;23;20008;-82
2023/08/21 00:46:31;;;;;;;10.23;8.15;;;20.70;88.20;;;;;;6251466;23;19996;-82
2023/08/21 00:48:57;;;;;;;12.55;8.07;;;20.70;88.20;;;;;;6251488;23;20004;-82
2023/08/21 00:51:23;;;;;;;12.50;9.10;;;20.60;87.80;;;;;;6249870;23;20015;-82
2023/08/21 00:53:49;;;;;;;12.15;8.60;;;20.60;87.70;;;;;;6251032;23;19992;-82
2023/08/21 00:56:15;;;;;;;11.38;7.80;;;20.60;87.50;;;;;;6251145;23;20079;-82
2023/08/21 00:58:41;;;;;;;11.43;8.88;;;20.60;87.40;;;;;;6251284;23;20000;-82
2023/08/21 01:01:07;;;;;;;15.55;8.45;;;20.60;87.80;;;;;;6224214;23;20004;-82
2023/08/21 01:03:32;;;;;;;13.45;9.02;;;20.60;87.60;;;;;;6251431;23;20011;-82
2023/08/21 01:05:58;;;;;;;13.95;8.18;;;20.50;87.10;;;;;;6249915;23;20011;-82
2023/08/21 01:08:40;;;;;;;12.43;8.50;;;20.50;86.30;;;;;;6251296;23;20035;-83
2023/08/21 01:11:56;;;;;;;11.32;7.88;;;20.50;85.90;;;;;;6224323;23;20004;-83
2023/08/21 01:14:30;;;;;;;13.27;8.55;;;20.50;85.80;;;;;;6227438;23;20000;-82
2023/08/21 01:17:02;;;;;;;11.02;8.07;;;20.50;86.10;;;;;;6250837;23;20265;-83
2023/08/21 01:19:34;;;;;;;13.20;8.65;;;20.50;85.70;;;;;;6224438;23;20004;-82
2023/08/21 01:22:00;;;;;;;13.07;9.02;;;20.50;85.90;;;;;;6249249;23;20247;-83
2023/08/21 01:24:26;;;;;;;13.48;8.95;;;20.50;86.10;;;;;;6224589;23;20058;-83
2023/08/21 01:26:51;;;;;;;12.95;9.57;;;20.40;85.30;;;;;;6251092;23;20003;-82
2023/08/21 01:29:17;;;;;;;14.35;8.70;;;20.30;84.10;;;;;;6250909;23;19997;-82
2023/08/21 01:31:50;;;;;;;13.98;8.77;;;20.40;84.30;;;;;;6251105;23;20069;-82
2023/08/21 01:34:16;;;;;;;16.55;9.05;;;20.40;84.80;;;;;;6251052;23;20393;-82
2023/08/21 01:36:43;;;;;;;13.90;8.98;;;20.40;84.50;;;;;;6249155;23;20023;-82
2023/08/21 01:39:09;;;;;;;11.50;8.77;;;20.40;85.00;;;;;;6251027;23;20243;-83
2023/08/21 01:41:34;;;;;;;13.68;8.88;;;20.40;84.70;;;;;;6250946;23;20063;-83
2023/08/21 01:44:00;;;;;;;12.50;8.88;;;20.40;84.80;;;;;;6251097;23;20079;-82
2023/08/21 01:46:25;;;;;;;13.88;9.30;;;20.40;84.10;;;;;;6224217;23;20061;-82
2023/08/21 01:48:51;;;;;;;14.05;8.98;;;20.40;84.30;;;;;;6224304;23;20001;-83
2023/08/21 01:51:16;;;;;;;15.00;9.57;;;20.30;83.80;;;;;;6248854;23;20004;-81
2023/08/21 01:53:42;;;;;;;13.73;9.32;;;20.30;83.80;;;;;;6250665;23;20007;-81
2023/08/21 01:56:07;;;;;;;10.88;8.63;;;20.30;83.40;;;;;;6250714;23;20000;-81
2023/08/21 01:58:33;;;;;;;12.25;9.02;;;20.30;83.20;;;;;;6224184;23;20016;-81
2023/08/21 02:00:59;;;;;;;14.25;9.82;;;20.20;82.70;;;;;;6224117;23;20000;-81
2023/08/21 02:03:28;;;;;;;13.02;9.57;;;20.30;82.50;;;;;;6250687;23;20046;-82
2023/08/21 02:05:59;;;;;;;15.55;10.02;;;20.30;82.90;;;;;;6247570;23;20056;-82
2023/08/21 02:08:30;;;;;;;11.23;8.95;;;20.30;82.70;;;;;;6224052;23;20090;-82
2023/08/21 02:10:56;;;;;;;16.50;9.75;;;20.30;82.60;;;;;;6223843;23;20297;-83
2023/08/21 02:13:21;;;;;;;12.55;9.75;;;20.30;82.60;;;;;;6250656;23;20003;-83
2023/08/21 02:15:47;;;;;;;11.52;9.25;;;20.30;83.00;;;;;;6250543;23;20429;-83
2023/08/21 02:18:12;;;;;;;15.65;10.25;;;20.30;83.10;;;;;;6223993;23;19996;-83
2023/08/21 02:20:38;;;;;;;17.38;10.20;;;20.20;82.80;;;;;;6248863;23;20004;-82
2023/08/21 02:23:03;;;;;;;12.32;10.02;;;20.20;82.20;;;;;;6250545;23;20007;-82
2023/08/21 02:25:30;;;;;;;14.05;9.35;;;20.20;81.80;;;;;;6250591;23;20008;-83
2023/08/21 02:27:55;;;;;;;12.07;9.40;;;20.10;83.00;;;;;;6250429;23;20246;-82
2023/08/21 02:30:25;;;;;;;15.52;9.05;;;20.10;83.70;;;;;;6223671;23;20012;-82
2023/08/21 02:32:53;;;;;;;14.30;8.70;;;20.00;83.40;;;;;;6250547;23;20388;-83
2023/08/21 02:35:19;;;;;;;15.43;9.43;;;20.00;82.50;;;;;;6248571;23;20000;-82
2023/08/21 02:37:45;;;;;;;10.82;9.43;;;20.00;81.50;;;;;;6250482;23;20000;-82
2023/08/21 02:40:11;;;;;;;13.98;9.48;;;20.00;81.20;;;;;;6250470;23;20008;-83
2023/08/21 02:42:36;;;;;;;14.25;9.52;;;19.90;80.70;;;;;;6223688;23;20273;-83
2023/08/21 02:45:07;;;;;;;13.90;10.27;;;19.90;80.40;;;;;;6223722;23;20008;-83
2023/08/21 02:47:42;;;;;;;13.15;9.88;;;19.90;79.90;;;;;;6250385;23;20008;-83
2023/08/21 02:50:09;;;;;;;13.13;10.45;;;19.90;78.80;;;;;;6249400;23;19996;-82
2023/08/21 02:52:35;;;;;;;12.70;9.80;;;19.90;78.60;;;;;;6249635;23;20003;-82
2023/08/21 02:55:01;;;;;;;11.30;10.10;;;19.80;78.70;;;;;;6250335;23;19996;-83
2023/08/21 02:57:28;;;;;;;14.20;10.52;;;19.80;79.40;;;;;;6249666;23;20008;-83
2023/08/21 02:59:54;;;;;;;14.57;11.25;;;19.70;78.80;;;;;;6250247;23;20077;-83
2023/08/21 03:02:20;;;;;;;12.35;10.35;;;19.70;78.10;;;;;;6223983;23;20115;-83
2023/08/21 03:04:47;;;;;;;18.00;11.63;;;19.70;77.30;;;;;;6223017;23;20039;-84
2023/08/21 03:07:12;;;;;;;14.70;10.75;;;19.70;77.30;;;;;;6221995;23;20057;-83
2023/08/21 03:09:39;;;;;;;13.43;10.40;;;19.70;76.80;;;;;;6249998;23;20008;-83
2023/08/21 03:12:04;;;;;;;12.93;10.10;;;19.80;77.10;;;;;;6249951;23;19993;-83
2023/08/21 03:14:30;;;;;;;14.05;10.73;;;19.80;77.70;;;;;;6250100;23;20004;-83
2023/08/21 03:16:56;;;;;;;14.30;10.43;;;19.70;78.40;;;;;;6248457;23;20000;-82
2023/08/21 03:19:21;;;;;;;14.80;9.88;;;19.70;77.90;;;;;;6250091;23;20451;-83
2023/08/21 03:21:47;;;;;;;15.05;11.30;;;19.60;76.90;;;;;;6248248;23;19996;-83
2023/08/21 03:24:12;;;;;;;13.98;10.63;;;19.70;76.30;;;;;;6223370;23;20004;-82
2023/08/21 03:26:38;;;;;;;12.85;10.82;;;19.60;75.70;;;;;;6221679;23;20000;-83
2023/08/21 03:29:03;;;;;;;16.15;11.80;;;19.60;74.90;;;;;;6222978;23;20270;-83
2023/08/21 03:31:30;;;;;;;13.73;11.52;;;19.60;75.20;;;;;;6249359;23;20081;-82
2023/08/21 03:33:55;;;;;;;16.38;10.90;;;19.60;74.20;;;;;;6223023;23;20011;-83
2023/08/21 03:36:22;;;;;;;13.63;10.18;;;19.60;73.30;;;;;;6220528;23;20008;-82
2023/08/21 03:38:48;;;;;;;15.05;9.65;;;19.60;74.30;;;;;;6249384;23;20023;-82
2023/08/21 03:41:15;;;;;;;13.50;10.13;;;19.60;75.70;;;;;;6223699;23;20028;-82
2023/08/21 03:43:40;;;;;;;15.38;11.40;;;19.60;75.80;;;;;;6222831;23;20004;-82
2023/08/21 03:46:06;;;;;;;15.18;11.30;;;19.50;75.80;;;;;;6222156;23;20012;-82
2023/08/21 03:48:31;;;;;;;15.00;10.65;;;19.50;75.10;;;;;;6249125;23;20285;-82
2023/08/21 03:50:57;;;;;;;14.70;11.38;;;19.50;74.30;;;;;;6247966;23;20012;-83
2023/08/21 03:53:23;;;;;;;14.50;10.63;;;19.50;73.90;;;;;;6249599;23;19996;-82
2023/08/21 03:55:48;;;;;;;14.55;10.93;;;19.60;73.80;;;;;;6222281;23;20075;-81
2023/08/21 03:58:14;;;;;;;17.73;12.00;;;19.60;74.10;;;;;;6248893;23;20034;-81
2023/08/21 04:00:40;;;;;;;14.05;11.65;;;19.50;74.30;;;;;;6220835;23;20012;-82
2023/08/21 04:03:05;;;;;;;15.50;12.15;;;19.50;72.30;;;;;;6248403;23;20012;-82
2023/08/21 04:05:31;;;;;;;15.38;11.30;;;19.60;72.70;;;;;;6220178;23;20077;-83
2023/08/21 04:07:56;;;;;;;15.27;11.18;;;19.60;73.90;;;;;;6222446;23;20362;-82
2023/08/21 04:10:22;;;;;;;16.98;11.40;;;19.60;74.10;;;;;;6249065;23;20083;-82
2023/08/21 04:12:48;;;;;;;15.05;10.57;;;19.50;74.30;;;;;;6249142;23;20004;-82
2023/08/21 04:15:13;;;;;;;16.48;11.30;;;19.50;73.90;;;;;;6249071;23;20024;-83
2023/08/21 04:17:39;;;;;;;21.63;13.73;;;19.50;73.70;;;;;;6250533;23;19996;-82
2023/08/21 04:20:05;;;;;;;18.00;12.60;;;19.50;74.00;;;;;;6251824;23;20000;-82
2023/08/21 04:22:30;;;;;;;16.50;12.38;;;19.60;73.20;;;;;;6223747;23;20015;-83
2023/08/21 04:24:56;;;;;;;14.20;11.43;;;19.60;73.20;;;;;;6251607;23;20067;-83
2023/08/21 04:27:22;;;;;;;14.50;11.65;;;19.50;72.90;;;;;;6251413;23;20005;-83
2023/08/21 04:29:47;;;;;;;17.08;12.20;;;19.60;72.70;;;;;;6250810;23;20026;-83
2023/08/21 04:32:13;;;;;;;14.80;11.40;;;19.60;72.90;;;;;;6251691;23;20003;-83
2023/08/21 04:34:39;;;;;;;17.45;11.43;;;19.60;73.30;;;;;;6251622;23;20004;-83
2023/08/21 04:37:04;;;;;;;16.13;11.50;;;19.60;73.30;;;;;;6223276;23;20027;-83
2023/08/21 04:39:30;;;;;;;13.85;11.20;;;19.60;73.30;;;;;;6251548;23;20000;-83
2023/08/21 04:41:56;;;;;;;14.73;11.63;;;19.60;73.10;;;;;;6251453;23;20000;-83
2023/08/21 04:44:21;;;;;;;16.40;12.32;;;19.60;73.30;;;;;;6250697;23;20004;-83
2023/08/21 04:46:50;;;;;;;15.32;11.13;;;19.70;74.00;;;;;;6251487;23;20024;-82
2023/08/21 04:49:16;;;;;;;16.52;11.60;;;19.70;74.50;;;;;;6251472;23;20050;-81
2023/08/21 04:51:42;;;;;;;13.85;11.00;;;19.70;74.80;;;;;;6249172;23;20008;-81
2023/08/21 04:54:07;;;;;;;15.60;11.15;;;19.70;75.00;;;;;;6251106;23;19996;-82
2023/08/21 04:56:33;;;;;;;13.35;10.95;;;19.70;75.60;;;;;;6224490;23;20012;-82
2023/08/21 04:58:58;;;;;;;12.43;10.38;;;19.80;76.50;;;;;;6251236;23;20004;-83
2023/08/21 05:01:24;;;;;;;14.82;11.32;;;19.80;75.80;;;;;;6250929;23;20007;-83
2023/08/21 05:03:51;;;;;;;13.57;10.63;;;19.80;76.30;;;;;;6250259;23;20000;-82
2023/08/21 05:06:16;;;;;;;13.25;11.23;;;19.90;77.10;;;;;;6248527;23;20000;-83
2023/08/21 05:08:45;;;;;;;16.85;11.13;;;19.90;77.40;;;;;;6224620;23;20015;-83
2023/08/21 05:11:10;;;;;;;14.27;11.25;;;20.00;78.40;;;;;;6224461;23;20047;-83
2023/08/21 05:13:36;;;;;;;16.48;10.60;;;20.00;78.90;;;;;;6251257;23;20358;-83
2023/08/21 05:16:02;;;;;;;12.88;10.77;;;20.00;78.90;;;;;;6250724;23;20010;-83
2023/08/21 05:18:28;;;;;;;13.73;10.77;;;20.00;79.70;;;;;;6251167;23;19996;-83
2023/08/21 05:20:55;;;;;;;14.80;10.82;;;20.10;80.10;;;;;;6249250;23;20004;-83
2023/08/21 05:23:21;;;;;;;12.63;10.25;;;20.20;81.10;;;;;;6250020;23;20008;-84
2023/08/21 05:25:48;;;;;;;16.08;10.95;;;20.20;82.60;;;;;;6250308;23;20075;-83
2023/08/21 05:28:14;;;;;;;19.23;9.90;;;20.20;84.10;;;;;;6250686;23;20012;-83
2023/08/21 05:30:40;;;;;;;13.57;10.63;;;20.20;84.40;;;;;;6250732;23;20250;-83
2023/08/21 05:33:06;;;;;;;13.57;10.10;;;20.30;84.20;;;;;;6251138;23;20075;-83
2023/08/21 05:35:35;;;;;;;12.13;9.60;;;20.30;83.40;;;;;;6222192;23;20028;-84
2023/08/21 05:38:02;;;;;;;13.15;10.55;;;20.40;83.40;;;;;;6250484;23;20067;-85
2023/08/21 05:40:28;;;;;;;12.30;9.82;;;20.40;84.00;;;;;;6224183;23;20027;-84
2023/08/21 05:42:54;;;;;;;14.20;10.25;;;20.50;84.20;;;;;;6250985;23;20361;-84
2023/08/21 05:45:19;;;;;;;15.80;10.05;;;20.60;85.00;;;;;;6250298;23;20361;-84
2023/08/21 05:47:45;;;;;;;14.30;10.70;;;20.70;86.20;;;;;;6251276;23;20000;-84
2023/08/21 05:50:10;;;;;;;12.75;10.63;;;20.80;85.60;;;;;;6249009;23;20014;-84
2023/08/21 05:52:36;;;;;;;14.02;10.05;;;20.90;86.70;;;;;;6250752;23;19996;-84
2023/08/21 05:55:01;;;;;;;14.75;9.55;;;21.00;86.10;;;;;;6250420;23;20000;-83
2023/08/21 05:57:27;;;;;;;14.30;9.40;;;21.10;86.20;;;;;;6250381;23;20369;-83
2023/08/21 05:59:52;;;;;;;15.25;9.82;;;21.30;87.40;;;;;;6250654;23;20004;-83
2023/08/21 06:02:18;;;;;;;15.45;9.90;;;21.60;88.80;;;;;;6250745;23;20001;-83
2023/08/21 06:04:43;;;;;;;13.43;9.57;;;21.80;90.90;;;;;;6250024;23;20015;-84
2023/08/21 06:07:09;;;;;;;14.23;10.02;;;22.00;92.00;;;;;;6249227;23;20262;-84
2023/08/21 06:09:36;;;;;;;15.60;9.57;;;22.10;92.10;;;;;;6250521;23;20000;-84
2023/08/21 06:12:02;;;;;;;23.55;10.32;;;22.30;93.30;;;;;;6250737;23;20079;-84
2023/08/21 06:14:31;;;;;;;15.52;9.82;;;22.30;93.30;;;;;;6223841;23;20007;-84
2023/08/21 06:17:01;;;;;;;13.85;8.68;;;22.50;93.90;;;;;;6250442;23;19996;-84
2023/08/21 06:19:28;;;;;;;16.35;8.32;;;22.70;96.00;;;;;;6248625;23;20011;-84
2023/08/21 06:21:55;;;;;;;11.75;8.30;;;22.90;96.10;;;;;;6247112;23;20001;-84
2023/08/21 06:24:21;;;;;;;13.55;8.20;;;23.10;96.20;;;;;;6249273;23;20055;-83
2023/08/21 06:26:46;;;;;;;11.05;7.75;;;23.20;96.50;;;;;;6250451;23;20004;-84
2023/08/21 06:29:12;;;;;;;14.32;8.43;;;23.30;96.90;;;;;;6250475;23;20007;-84
2023/08/21 06:31:37;;;;;;;11.25;8.15;;;23.40;97.20;;;;;;6250317;23;20038;-84
2023/08/21 06:34:03;;;;;;;12.45;7.93;;;23.40;97.40;;;;;;6249431;23;20001;-84
2023/08/21 06:36:28;;;;;;;11.57;8.88;;;23.50;97.60;;;;;;6248748;23;20003;-84
2023/08/21 06:38:55;;;;;;;12.05;8.45;;;23.60;97.50;;;;;;6250423;23;20071;-84
2023/08/21 06:41:21;;;;;;;9.65;7.97;;;23.70;97.60;;;;;;6249866;23;20028;-84
2023/08/21 06:43:47;;;;;;;10.88;8.23;;;23.90;97.70;;;;;;6250073;23;20007;-84
2023/08/21 06:46:13;;;;;;;13.50;9.38;;;24.00;97.70;;;;;;6250217;23;20008;-84
2023/08/21 06:48:43;;;;;;;13.65;8.40;;;24.10;97.70;;;;;;6249947;23;20361;-84
2023/08/21 06:51:09;;;;;;;12.38;8.40;;;24.20;97.80;;;;;;6221718;23;20004;-84
2023/08/21 06:53:34;;;;;;;15.10;7.90;;;24.40;97.70;;;;;;6250024;23;20003;-84
2023/08/21 06:56:00;;;;;;;12.93;7.85;;;24.60;97.00;;;;;;6250290;23;20000;-84
2023/08/21 06:58:26;;;;;;;13.40;8.32;;;24.70;96.40;;;;;;6249927;23;20016;-84
2023/08/21 07:00:53;;;;;;;12.65;8.15;;;24.90;96.20;;;;;;6223586;23;20091;-83
2023/08/21 07:03:20;;;;;;;14.25;8.20;;;25.00;95.10;;;;;;6249473;23;20004;-84
2023/08/21 07:05:59;;;;;;;12.15;8.10;;;25.10;95.00;;;;;;6248882;23;20004;-84
2023/08/21 07:08:26;;;;;;;16.38;8.70;;;25.10;94.80;;;;;;6249198;23;20080;-84
2023/08/21 07:10:52;;;;;;;13.10;8.77;;;25.20;94.80;;;;;;6250371;23;20357;-84
2023/08/21 07:13:18;;;;;;;11.82;7.60;;;25.20;94.50;;;;;;6249804;23;20000;-84
2023/08/21 07:15:44;;;;;;;12.65;8.20;;;25.20;94.80;;;;;;6250093;23;20004;-84
2023/08/21 07:18:09;;;;;;;13.57;8.20;;;25.40;94.40;;;;;;6249932;23;20322;-84
2023/08/21 07:20:35;;;;;;;14.07;9.35;;;25.50;94.30;;;;;;6248531;23;20270;-84
2023/08/21 07:23:00;;;;;;;11.70;8.13;;;25.40;94.00;;;;;;6223189;23;20015;-82
2023/08/21 07:25:27;;;;;;;15.95;7.65;;;25.50;94.20;;;;;;6249791;23;20028;-79
2023/08/21 07:27:53;;;;;;;14.75;8.50;;;25.70;94.00;;;;;;6250118;23;20050;-79
2023/08/21 07:30:19;;;;;;;13.85;8.60;;;25.90;93.30;;;;;;6249881;23;20000;-82
2023/08/21 07:32:45;;;;;;;13.18;8.90;;;25.50;95.40;;;;;;6223237;23;20079;-82
2023/08/21 07:35:14;;;;;;;13.60;9.02;;;24.70;96.70;;;;;;6247614;23;19996;-80
2023/08/21 07:37:49;;;;;;;14.75;9.68;;;24.40;97.30;;;;;;6249979;23;20004;-83
2023/08/21 07:40:14;;;;;;;12.38;9.10;;;24.20;96.50;;;;;;6250036;23;20008;-82
2023/08/21 07:42:40;;;;;;;13.77;9.18;;;23.90;97.10;;;;;;6223404;23;20023;-80
2023/08/21 07:45:06;;;;;;;15.70;9.50;;;24.00;97.10;;;;;;6249510;23;20008;-81
2023/08/21 07:47:32;;;;;;;13.13;9.52;;;24.00;96.80;;;;;;6249675;23;20010;-81
2023/08/21 07:49:57;;;;;;;16.55;9.18;;;24.10;96.70;;;;;;6221509;23;20305;-80
2023/08/21 07:52:23;;;;;;;13.05;8.73;;;24.20;97.50;;;;;;6249155;23;20030;-82
2023/08/21 07:54:53;;;;;;;14.43;8.20;;;24.60;97.30;;;;;;6252026;23;20023;-82
2023/08/21 07:57:19;;;;;;;11.90;7.63;;;25.30;96.70;;;;;;6251961;23;20012;-83
2023/08/21 07:59:44;;;;;;;11.20;7.40;;;26.40;94.60;;;;;;6251496;23;20380;-82
2023/08/21 08:02:12;;;;;;;11.23;6.97;;;27.40;91.50;;;;;;6251696;23;19998;-83
2023/08/21 08:04:38;;;;;;;10.35;6.40;;;28.40;88.40;;;;;;6250796;23;20003;-83
2023/08/21 08:07:04;;;;;;;11.52;6.80;;;29.60;86.10;;;;;;6250419;23;19992;-83
2023/08/21 08:09:30;;;;;;;14.60;6.53;;;30.30;82.60;;;;;;6251526;23;20003;-83
2023/08/21 08:11:55;;;;;;;10.30;6.43;;;31.00;82.60;;;;;;6252187;23;20021;-83
2023/08/21 08:14:21;;;;;;;11.32;6.05;;;31.90;80.00;;;;;;6251705;23;20004;-83
2023/08/21 08:16:47;;;;;;;9.43;6.13;;;32.60;79.00;;;;;;6251637;23;20000;-84
2023/08/21 08:19:12;;;;;;;12.45;5.50;;;33.20;77.10;;;;;;6251334;23;20004;-84
2023/08/21 08:21:38;;;;;;;11.23;5.93;;;33.60;75.90;;;;;;6248330;23;20004;-84
2023/08/21 08:24:03;;;;;;;11.38;6.00;;;33.20;75.50;;;;;;6251314;23;20001;-84
2023/08/21 08:26:29;;;;;;;8.30;5.63;;;32.60;77.70;;;;;;6251597;23;20385;-84
2023/08/21 08:28:55;;;;;;;14.40;6.28;;;32.90;76.80;;;;;;6251548;23;20070;-84
2023/08/21 08:31:20;;;;;;;10.10;5.78;;;32.60;77.30;;;;;;6251448;23;20247;-84
2023/08/21 08:33:47;;;;;;;10.43;5.97;;;32.80;76.50;;;;;;6251292;23;20005;-84
2023/08/21 08:36:13;;;;;;;9.55;6.18;;;33.20;76.40;;;;;;6250153;23;20005;-84
2023/08/21 08:38:38;;;;;;;9.43;6.18;;;33.30;75.90;;;;;;6251302;23;20397;-84
2023/08/21 08:41:11;;;;;;;10.20;6.25;;;33.30;75.80;;;;;;6250994;23;20000;-84
2023/08/21 08:43:40;;;;;;;8.60;5.82;;;33.30;75.30;;;;;;6251627;23;19996;-84
2023/08/21 08:46:07;;;;;;;12.18;5.88;;;33.40;75.10;;;;;;6251446;23;20004;-83
2023/08/21 08:48:34;;;;;;;8.30;5.78;;;33.40;75.30;;;;;;6224769;23;20444;-83
2023/08/21 08:51:00;;;;;;;8.07;5.63;;;33.40;75.20;;;;;;6249884;23;20007;-83
2023/08/21 08:53:28;;;;;;;10.23;6.60;;;34.00;73.80;;;;;;6251420;23;20068;-83
2023/08/21 08:55:53;;;;;;;9.52;5.35;;;33.90;73.70;;;;;;6224464;23;20004;-84
2023/08/21 08:58:19;;;;;;;10.35;6.60;;;33.40;74.80;;;;;;6251095;23;20091;-84
2023/08/21 09:00:44;;;;;;;8.82;5.38;;;33.50;74.50;;;;;;6251381;23;20010;-83
2023/08/21 09:03:12;;;;;;;8.60;6.05;;;33.60;74.70;;;;;;6249891;23;20239;-83
2023/08/21 09:05:40;;;;;;;10.32;5.93;;;33.90;72.80;;;;;;6248759;23;20007;-84
2023/08/21 09:08:08;;;;;;;11.65;5.95;;;33.60;74.50;;;;;;6249277;23;20062;-83
2023/08/21 09:10:37;;;;;;;8.07;5.35;;;33.80;73.30;;;;;;6250996;23;20396;-83
2023/08/21 09:13:12;;;;;;;12.20;5.97;;;33.70;73.50;;;;;;6251058;23;20000;-83
2023/08/21 09:15:38;;;;;;;9.05;5.70;;;33.70;73.10;;;;;;6251430;23;20008;-83
2023/08/21 09:18:04;;;;;;;11.20;6.05;;;33.80;73.10;;;;;;6251156;23;20304;-83
2023/08/21 09:20:35;;;;;;;11.20;5.80;;;34.10;73.10;;;;;;6248831;23;20004;-83
2023/08/21 09:23:01;;;;;;;11.55;6.10;;;34.20;72.50;;;;;;6250590;23;20396;-83
2023/08/21 09:25:26;;;;;;;11.32;6.28;;;34.40;72.60;;;;;;6250104;23;20008;-83
2023/08/21 09:27:53;;;;;;;13.50;5.80;;;34.00;72.20;;;;;;6250678;23;20004;-83
2023/08/21 09:30:19;;;;;;;9.18;6.25;;;34.00;72.80;;;;;;6249434;23;20004;-83
2023/08/21 09:33:00;;;;;;;10.95;6.18;;;33.40;72.80;;;;;;6250121;23;20130;-83
2023/08/21 09:35:26;;;;;;;18.75;7.65;;;33.30;74.40;;;;;;6248041;23;20000;-82
2023/08/21 09:37:55;;;;;;;9.55;5.20;;;33.90;72.90;;;;;;6224027;23;20004;-83
2023/08/21 09:40:21;;;;;;;11.52;5.70;;;33.70;70.60;;;;;;6223226;23;20009;-83
2023/08/21 09:42:58;;;;;;;9.57;5.20;;;33.90;71.70;;;;;;6249176;23;20012;-83
2023/08/21 09:45:25;;;;;;;10.82;5.78;;;33.90;71.40;;;;;;6250099;23;20039;-83
2023/08/21 09:47:52;;;;;;;10.63;5.85;;;33.90;71.60;;;;;;6250568;23;20370;-83
2023/08/21 09:50:19;;;;;;;10.55;6.20;;;33.50;73.20;;;;;;6248542;23;20075;-82
2023/08/21 09:52:45;;;;;;;11.57;5.80;;;34.00;71.80;;;;;;6250416;23;20000;-83
2023/08/21 09:55:13;;;;;;;8.00;5.80;;;34.40;71.70;;;;;;6250355;23;20369;-82
2023/08/21 09:57:40;;;;;;;9.23;5.82;;;35.10;70.00;;;;;;6250263;23;20039;-82
2023/08/21 10:00:20;;;;;;;9.82;5.80;;;35.30;70.30;;;;;;6250956;23;20000;-83
2023/08/21 10:02:50;;;;;;;8.10;5.00;;;35.40;68.50;;;;;;6250131;23;20015;-83
2023/08/21 10:05:19;;;;;;;10.52;5.65;;;35.40;68.10;;;;;;6247183;23;20008;-83
2023/08/21 10:07:49;;;;;;;10.57;5.43;;;34.30;71.10;;;;;;6250327;23;20004;-82
2023/08/21 10:10:16;;;;;;;11.18;5.57;;;34.80;70.40;;;;;;6249937;23;20004;-82
2023/08/21 10:12:41;;;;;;;11.82;5.70;;;35.40;70.00;;;;;;6250236;23;20076;-82
2023/08/21 10:15:09;;;;;;;12.32;6.03;;;34.90;68.10;;;;;;6250375;23;20035;-83
2023/08/21 10:17:36;;;;;;;8.27;5.65;;;33.90;70.90;;;;;;6250548;23;20370;-82
2023/08/21 10:20:09;;;;;;;9.32;5.93;;;33.90;71.80;;;;;;6250876;23;20003;-83
2023/08/21 10:22:48;;;;;;;;;;;34.30;70.40;;;;;;6251157;23;20024;-83
2023/08/21 10:25:22;;;;;;;8.15;5.72;;;34.10;71.20;;;;;;6198984;23;19911;-82
2023/08/21 10:27:55;;;;;;;10.93;6.10;;;33.90;70.80;;;;;;6250069;23;20004;-82
2023/08/21 10:30:24;;;;;;;;;;;32.80;73.60;;;;;;6249557;23;20012;-82
2023/08/21 10:32:53;;;;;;;7.95;5.57;;;33.30;73.40;;;;;;6250390;23;19977;-82
2023/08/21 10:35:21;;;;;;;10.80;5.85;;;33.80;71.80;;;;;;6248900;23;20034;-82
2023/08/21 10:38:13;;;;;;;11.82;6.60;;;33.80;71.10;;;;;;6248514;23;20039;-80
2023/08/21 10:41:06;;;;;;;12.77;5.95;;;34.30;69.60;;;;;;6250090;23;20059;-81
2023/08/21 10:43:43;;;;;;;10.40;5.77;;;34.40;71.90;;;;;;6250152;23;20006;-81
2023/08/21 10:46:09;;;;;;;14.07;5.60;;;34.90;70.30;;;;;;6248342;23;20004;-80
2023/08/21 10:48:36;;;;;;;8.95;5.43;;;35.20;68.40;;;;;;6248935;23;20031;-82
2023/08/21 10:51:03;;;;;;;11.38;5.68;;;34.80;69.50;;;;;;6222014;23;20004;-82
2023/08/21 10:53:30;;;;;;;10.98;5.72;;;34.60;69.70;;;;;;6250322;23;20320;-82
2023/08/21 10:55:56;;;;;;;12.88;5.75;;;34.80;68.40;;;;;;6249837;23;19996;-81
2023/08/21 10:58:22;;;;;;;22.27;6.20;;;34.90;69.10;;;;;;6246875;23;20016;-82
2023/08/21 11:00:57;;;;;;;14.65;5.60;;;35.10;68.60;;;;;;6249969;23;20000;-82
2023/08/21 11:03:23;;;;;;;8.40;5.63;;;35.70;67.40;;;;;;6248531;23;20083;-82
2023/08/21 11:06:05;;;;;;;10.93;5.70;;;35.70;68.30;;;;;;6247786;23;20373;-82
2023/08/21 11:08:33;;;;;;;11.55;5.88;;;35.60;67.20;;;;;;6249966;23;20057;-82
2023/08/21 11:11:00;;;;;;;11.73;5.32;;;35.10;68.80;;;;;;6248883;23;20000;-82
2023/08/21 11:13:25;;;;;;;10.45;6.00;;;35.30;68.10;;;;;;6250092;23;20247;-82
2023/08/21 11:15:59;;;;;;;11.25;5.97;;;34.40;70.30;;;;;;6223706;23;20007;-82
2023/08/21 11:18:31;;;;;;;8.93;5.47;;;34.40;71.00;;;;;;6222965;23;20320;-81
2023/08/21 11:21:10;;;;;;;10.70;5.90;;;34.60;70.40;;;;;;6221961;23;20004;-82
2023/08/21 11:23:41;;;;;;;9.73;6.13;;;35.40;69.00;;;;;;6249969;23;20004;-82
2023/08/21 11:26:10;;;;;;;12.57;5.97;;;35.10;67.70;;;;;;6223261;23;20015;-81
2023/08/21 11:28:38;;;;;;;10.13;5.38;;;34.80;68.00;;;;;;6250013;23;20000;-82
2023/08/21 11:31:05;;;;;;;10.48;6.00;;;34.90;70.20;;;;;;6223692;23;20374;-82
2023/08/21 11:33:31;;;;;;;11.10;6.38;;;35.20;68.20;;;;;;6249821;23;19997;-82
2023/08/21 11:35:58;;;;;;;9.32;5.82;;;35.30;68.70;;;;;;6222181;23;20000;-81
2023/08/21 11:38:26;;;;;;;10.65;6.28;;;35.40;67.50;;;;;;6250001;23;20079;-82
2023/08/21 11:41:00;;;;;;;14.02;6.18;;;35.20;69.00;;;;;;6223184;23;20305;-81
2023/08/21 11:43:40;;;;;;;9.30;5.63;;;35.10;68.40;;;;;;6249492;23;20027;-81
2023/08/21 11:46:08;;;;;;;10.18;5.60;;;35.50;66.70;;;;;;6250073;23;20008;-81
2023/08/21 11:48:38;;;;;;;10.00;5.57;;;35.40;66.50;;;;;;6249245;23;20008;-81
2023/08/21 11:51:04;;;;;;;10.95;5.28;;;35.90;66.40;;;;;;6248429;23;20039;-81
2023/08/21 11:53:38;;;;;;;10.07;5.43;;;35.90;66.30;;;;;;6223047;23;20023;-82
2023/08/21 11:56:11;;;;;;;8.45;5.70;;;35.40;66.10;;;;;;6250031;23;20007;-81
2023/08/21 11:58:43;;;;;;;13.33;5.77;;;35.10;68.10;;;;;;6223609;23;20012;-81
2023/08/21 12:01:09;;;;;;;11.90;6.03;;;35.40;67.50;;;;;;6224458;23;20008;-82
2023/08/21 12:03:39;;;;;;;10.48;5.78;;;35.30;67.30;;;;;;6251112;23;20000;-82
2023/08/21 12:06:09;;;;;;;8.57;5.18;;;35.10;67.30;;;;;;6249750;23;20008;-81
2023/08/21 12:08:35;;;;;;;10.95;6.03;;;34.80;68.30;;;;;;6223689;23;20067;-81
2023/08/21 12:11:01;;;;;;;10.65;5.82;;;34.60;69.60;;;;;;6250645;23;20010;-81
2023/08/21 12:13:27;;;;;;;8.38;5.90;;;34.80;67.50;;;;;;6224629;23;20424;-81
2023/08/21 12:15:53;;;;;;;11.02;6.30;;;34.80;68.00;;;;;;6250811;23;20035;-82
2023/08/21 12:18:18;;;;;;;10.50;5.22;;;34.80;67.30;;;;;;6222604;23;20070;-81
2023/08/21 12:20:45;;;;;;;10.30;5.45;;;34.60;68.50;;;;;;6248779;23;20138;-81
2023/08/21 12:23:11;;;;;;;9.10;5.65;;;34.90;67.20;;;;;;6250644;23;20091;-81
2023/08/21 12:25:36;;;;;;;10.02;5.82;;;34.80;66.70;;;;;;6250157;23;20007;-81
2023/08/21 12:28:02;;;;;;;12.38;5.90;;;34.70;67.70;;;;;;6222841;23;20019;-82
2023/08/21 12:30:28;;;;;;;10.30;5.25;;;34.50;67.20;;;;;;6249357;23;20258;-81
2023/08/21 12:32:53;;;;;;;9.57;6.03;;;34.80;68.00;;;;;;6250067;23;20023;-81
2023/08/21 12:35:19;;;;;;;11.60;5.40;;;35.20;68.40;;;;;;6248371;23;20058;-81